sensor_id;sensor_type;location;lat;lon;timestamp;pressure;altitude;pressure_sealevel;temperature;humidity
50682;BME280;36779;52.168;20.878;2024-01-15T00:00:32;98346.23;;;0.73;78.01
50682;BME280;36779;52.168;20.878;2024-01-15T00:03:27;98344.56;;;0.72;78.04
50682;BME280;36779;52.168;20.878;2024-01-15T00:06:05;98338.75;;;0.70;78.11
50682;BME280;36779;52.168;20.878;2024-01-15T00:08:48;98334.59;;;0.70;78.11
50682;BME280;36779;52.168;20.878;2024-01-15T00:11:27;98328.79;;;0.70;78.12
50682;BME280;36779;52.168;20.878;2024-01-15T00:14:00;98324.84;;;0.69;78.12
50682;BME280;36779;52.168;20.878;2024-01-15T00:16:35;98319.93;;;0.70;78.06
50682;BME280;36779;52.168;20.878;2024-01-15T00:19:08;98317.61;;;0.70;77.99
50682;BME280;36779;52.168;20.878;2024-01-15T00:21:42;98311.81;;;0.70;78.14
50682;BME280;36779;52.168;20.878;2024-01-15T00:24:19;98301.36;;;0.70;78.10
50682;BME280;36779;52.168;20.878;2024-01-15T00:26:52;98299.16;;;0.69;78.16
50682;BME280;36779;52.168;20.878;2024-01-15T00:29:25;98284.87;;;0.69;78.16
50682;BME280;36779;52.168;20.878;2024-01-15T00:32:03;98279.34;;;0.68;78.17
50682;BME280;36779;52.168;20.878;2024-01-15T00:34:37;98284.45;;;0.66;78.18
50682;BME280;36779;52.168;20.878;2024-01-15T00:37:11;98279.73;;;0.64;78.16
50682;BME280;36779;52.168;20.878;2024-01-15T00:39:44;98279.05;;;0.62;78.18
50682;BME280;36779;52.168;20.878;2024-01-15T00:42:17;98275.25;;;0.58;78.08
50682;BME280;36779;52.168;20.878;2024-01-15T00:44:51;98272.23;;;0.55;78.09
50682;BME280;36779;52.168;20.878;2024-01-15T00:47:26;98269.85;;;0.53;78.05
50682;BME280;36779;52.168;20.878;2024-01-15T00:49:58;98266.63;;;0.52;78.08
50682;BME280;36779;52.168;20.878;2024-01-15T00:52:31;98263.26;;;0.51;78.11
50682;BME280;36779;52.168;20.878;2024-01-15T00:55:04;98259.56;;;0.49;78.03
50682;BME280;36779;52.168;20.878;2024-01-15T00:57:39;98258.40;;;0.48;78.04
50682;BME280;36779;52.168;20.878;2024-01-15T01:00:13;98253.39;;;0.48;78.06
50682;BME280;36779;52.168;20.878;2024-01-15T01:02:46;98254.11;;;0.48;78.06
50682;BME280;36779;52.168;20.878;2024-01-15T01:05:21;98248.48;;;0.48;78.05
50682;BME280;36779;52.168;20.878;2024-01-15T01:07:54;98244.31;;;0.49;78.05
50682;BME280;36779;52.168;20.878;2024-01-15T01:10:27;98242.63;;;0.49;77.97
50682;BME280;36779;52.168;20.878;2024-01-15T01:13:04;98237.60;;;0.49;78.10
50682;BME280;36779;52.168;20.878;2024-01-15T01:15:42;98241.02;;;0.49;78.10
50682;BME280;36779;52.168;20.878;2024-01-15T01:18:17;98236.98;;;0.49;78.02
50682;BME280;36779;52.168;20.878;2024-01-15T01:20:52;98231.77;;;0.49;78.09
50682;BME280;36779;52.168;20.878;2024-01-15T01:23:24;98235.66;;;0.48;78.03
50682;BME280;36779;52.168;20.878;2024-01-15T01:25:59;98235.63;;;0.49;78.07
50682;BME280;36779;52.168;20.878;2024-01-15T01:28:32;98234.39;;;0.49;78.06
50682;BME280;36779;52.168;20.878;2024-01-15T01:31:09;98225.61;;;0.49;78.12
50682;BME280;36779;52.168;20.878;2024-01-15T01:33:42;98215.77;;;0.48;78.09
50682;BME280;36779;52.168;20.878;2024-01-15T01:36:20;98209.91;;;0.47;78.12
50682;BME280;36779;52.168;20.878;2024-01-15T01:38:52;98209.63;;;0.46;78.13
50682;BME280;36779;52.168;20.878;2024-01-15T01:41:25;98211.71;;;0.45;78.16
50682;BME280;36779;52.168;20.878;2024-01-15T01:44:00;98207.85;;;0.45;78.19
50682;BME280;36779;52.168;20.878;2024-01-15T01:46:33;98207.34;;;0.47;78.16
50682;BME280;36779;52.168;20.878;2024-01-15T01:49:12;98196.05;;;0.46;78.22
50682;BME280;36779;52.168;20.878;2024-01-15T01:51:45;98191.88;;;0.48;78.15
50682;BME280;36779;52.168;20.878;2024-01-15T01:54:21;98186.17;;;0.49;78.21
50682;BME280;36779;52.168;20.878;2024-01-15T01:56:55;98182.06;;;0.50;78.15
50682;BME280;36779;52.168;20.878;2024-01-15T01:59:28;98180.57;;;0.51;78.30
50682;BME280;36779;52.168;20.878;2024-01-15T02:02:03;98175.98;;;0.51;78.28
50682;BME280;36779;52.168;20.878;2024-01-15T02:04:40;98179.83;;;0.51;78.15
50682;BME280;36779;52.168;20.878;2024-01-15T02:07:15;98179.63;;;0.51;78.14
50682;BME280;36779;52.168;20.878;2024-01-15T02:09:52;98177.36;;;0.53;78.22
50682;BME280;36779;52.168;20.878;2024-01-15T02:12:24;98170.05;;;0.53;78.18
50682;BME280;36779;52.168;20.878;2024-01-15T02:15:05;98172.41;;;0.52;78.30
50682;BME280;36779;52.168;20.878;2024-01-15T02:17:57;98168.22;;;0.52;78.26
50682;BME280;36779;52.168;20.878;2024-01-15T02:20:32;98161.80;;;0.51;78.21
50682;BME280;36779;52.168;20.878;2024-01-15T02:23:11;98155.54;;;0.51;78.24
50682;BME280;36779;52.168;20.878;2024-01-15T02:25:45;98154.00;;;0.51;78.22
50682;BME280;36779;52.168;20.878;2024-01-15T02:28:23;98151.66;;;0.51;78.22
50682;BME280;36779;52.168;20.878;2024-01-15T02:30:56;98146.19;;;0.52;78.24
50682;BME280;36779;52.168;20.878;2024-01-15T02:33:29;98140.04;;;0.52;78.25
50682;BME280;36779;52.168;20.878;2024-01-15T02:36:01;98135.35;;;0.52;78.20
50682;BME280;36779;52.168;20.878;2024-01-15T02:38:34;98135.73;;;0.51;78.22
50682;BME280;36779;52.168;20.878;2024-01-15T02:41:06;98132.67;;;0.49;78.15
50682;BME280;36779;52.168;20.878;2024-01-15T02:43:39;98130.63;;;0.46;78.14
50682;BME280;36779;52.168;20.878;2024-01-15T02:46:13;98124.11;;;0.43;78.26
50682;BME280;36779;52.168;20.878;2024-01-15T02:48:50;98116.64;;;0.41;78.21
50682;BME280;36779;52.168;20.878;2024-01-15T02:51:22;98118.28;;;0.39;78.20
50682;BME280;36779;52.168;20.878;2024-01-15T02:53:55;98112.34;;;0.35;78.25
50682;BME280;36779;52.168;20.878;2024-01-15T02:56:28;98107.41;;;0.34;78.27
50682;BME280;36779;52.168;20.878;2024-01-15T02:59:03;98087.36;;;0.34;78.19
50682;BME280;36779;52.168;20.878;2024-01-15T03:01:36;98084.45;;;0.35;78.27
50682;BME280;36779;52.168;20.878;2024-01-15T03:04:08;98077.44;;;0.35;78.19
50682;BME280;36779;52.168;20.878;2024-01-15T03:06:42;98076.92;;;0.37;78.25
50682;BME280;36779;52.168;20.878;2024-01-15T03:09:17;98076.12;;;0.38;78.17
50682;BME280;36779;52.168;20.878;2024-01-15T03:11:50;98069.63;;;0.38;78.16
50682;BME280;36779;52.168;20.878;2024-01-15T03:14:27;98065.95;;;0.36;78.17
50682;BME280;36779;52.168;20.878;2024-01-15T03:17:00;98059.91;;;0.35;78.23
50682;BME280;36779;52.168;20.878;2024-01-15T03:19:44;98055.73;;;0.33;78.13
50682;BME280;36779;52.168;20.878;2024-01-15T03:22:17;98054.88;;;0.34;78.20
50682;BME280;36779;52.168;20.878;2024-01-15T03:24:56;98055.30;;;0.33;78.10
50682;BME280;36779;52.168;20.878;2024-01-15T03:27:29;98048.16;;;0.31;78.15
50682;BME280;36779;52.168;20.878;2024-01-15T03:30:01;98044.73;;;0.31;78.09
50682;BME280;36779;52.168;20.878;2024-01-15T03:32:34;98034.81;;;0.30;78.15
50682;BME280;36779;52.168;20.878;2024-01-15T03:35:08;98039.81;;;0.31;78.26
50682;BME280;36779;52.168;20.878;2024-01-15T03:37:42;98038.62;;;0.30;78.21
50682;BME280;36779;52.168;20.878;2024-01-15T03:40:15;98041.84;;;0.31;78.15
50682;BME280;36779;52.168;20.878;2024-01-15T03:42:53;98040.21;;;0.32;78.26
50682;BME280;36779;52.168;20.878;2024-01-15T03:45:26;98035.67;;;0.32;78.26
50682;BME280;36779;52.168;20.878;2024-01-15T03:48:04;98031.36;;;0.31;78.25
50682;BME280;36779;52.168;20.878;2024-01-15T03:50:44;98023.27;;;0.32;78.22
50682;BME280;36779;52.168;20.878;2024-01-15T03:53:25;98022.47;;;0.33;78.28
50682;BME280;36779;52.168;20.878;2024-01-15T03:55:58;98021.13;;;0.32;78.14
50682;BME280;36779;52.168;20.878;2024-01-15T03:58:31;98015.23;;;0.33;78.33
50682;BME280;36779;52.168;20.878;2024-01-15T04:01:09;98012.73;;;0.34;78.29
50682;BME280;36779;52.168;20.878;2024-01-15T04:03:44;98007.52;;;0.34;78.20
50682;BME280;36779;52.168;20.878;2024-01-15T04:06:16;98006.11;;;0.34;78.22
50682;BME280;36779;52.168;20.878;2024-01-15T04:08:53;98000.64;;;0.34;78.23
50682;BME280;36779;52.168;20.878;2024-01-15T04:11:28;98000.05;;;0.35;78.29
50682;BME280;36779;52.168;20.878;2024-01-15T04:14:00;97998.33;;;0.35;78.28
50682;BME280;36779;52.168;20.878;2024-01-15T04:16:34;97990.27;;;0.35;78.28
50682;BME280;36779;52.168;20.878;2024-01-15T04:19:08;97983.97;;;0.35;78.34
50682;BME280;36779;52.168;20.878;2024-01-15T04:21:42;97978.50;;;0.35;78.22
50682;BME280;36779;52.168;20.878;2024-01-15T04:24:14;97969.36;;;0.36;78.26
50682;BME280;36779;52.168;20.878;2024-01-15T04:26:52;97965.08;;;0.35;78.26
50682;BME280;36779;52.168;20.878;2024-01-15T04:29:28;97962.84;;;0.35;78.25
50682;BME280;36779;52.168;20.878;2024-01-15T04:32:15;97957.31;;;0.34;78.31
50682;BME280;36779;52.168;20.878;2024-01-15T04:34:50;97949.56;;;0.33;78.31
50682;BME280;36779;52.168;20.878;2024-01-15T04:37:26;97947.55;;;0.31;78.35
50682;BME280;36779;52.168;20.878;2024-01-15T04:39:58;97947.02;;;0.29;78.35
50682;BME280;36779;52.168;20.878;2024-01-15T04:42:31;97940.59;;;0.27;78.32
50682;BME280;36779;52.168;20.878;2024-01-15T04:45:04;97938.83;;;0.27;78.38
50682;BME280;36779;52.168;20.878;2024-01-15T04:47:38;97939.71;;;0.27;78.25
50682;BME280;36779;52.168;20.878;2024-01-15T04:50:15;97933.85;;;0.28;78.26
50682;BME280;36779;52.168;20.878;2024-01-15T04:52:47;97933.98;;;0.29;78.28
50682;BME280;36779;52.168;20.878;2024-01-15T04:55:22;97936.77;;;0.30;78.30
50682;BME280;36779;52.168;20.878;2024-01-15T04:57:57;97933.86;;;0.33;78.29
50682;BME280;36779;52.168;20.878;2024-01-15T05:00:30;97933.36;;;0.34;78.35
50682;BME280;36779;52.168;20.878;2024-01-15T05:03:05;97925.63;;;0.35;78.21
50682;BME280;36779;52.168;20.878;2024-01-15T05:05:38;97926.84;;;0.37;78.32
50682;BME280;36779;52.168;20.878;2024-01-15T05:08:10;97926.56;;;0.38;78.30
50682;BME280;36779;52.168;20.878;2024-01-15T05:10:54;97925.21;;;0.39;78.26
50682;BME280;36779;52.168;20.878;2024-01-15T05:13:27;97924.81;;;0.41;78.31
50682;BME280;36779;52.168;20.878;2024-01-15T05:16:00;97919.42;;;0.42;78.30
50682;BME280;36779;52.168;20.878;2024-01-15T05:18:46;97917.95;;;0.43;78.29
50682;BME280;36779;52.168;20.878;2024-01-15T05:21:21;97918.27;;;0.43;78.23
50682;BME280;36779;52.168;20.878;2024-01-15T05:23:57;97917.12;;;0.44;78.32
50682;BME280;36779;52.168;20.878;2024-01-15T05:26:30;97913.70;;;0.43;78.33
50682;BME280;36779;52.168;20.878;2024-01-15T05:29:03;97914.73;;;0.42;78.32
50682;BME280;36779;52.168;20.878;2024-01-15T05:31:36;97913.78;;;0.39;78.29
50682;BME280;36779;52.168;20.878;2024-01-15T05:34:09;97915.95;;;0.37;78.30
50682;BME280;36779;52.168;20.878;2024-01-15T05:36:43;97914.02;;;0.35;78.39
50682;BME280;36779;52.168;20.878;2024-01-15T05:39:20;97913.30;;;0.36;78.20
50682;BME280;36779;52.168;20.878;2024-01-15T05:41:54;97917.41;;;0.36;78.28
50682;BME280;36779;52.168;20.878;2024-01-15T05:44:26;97917.34;;;0.37;78.28
50682;BME280;36779;52.168;20.878;2024-01-15T05:46:58;97912.86;;;0.38;78.24
50682;BME280;36779;52.168;20.878;2024-01-15T05:49:31;97913.06;;;0.38;78.27
50682;BME280;36779;52.168;20.878;2024-01-15T05:52:04;97911.58;;;0.39;78.25
50682;BME280;36779;52.168;20.878;2024-01-15T05:54:36;97912.41;;;0.41;78.24
50682;BME280;36779;52.168;20.878;2024-01-15T05:57:14;97911.95;;;0.42;78.28
50682;BME280;36779;52.168;20.878;2024-01-15T05:59:52;97911.36;;;0.42;78.27
50682;BME280;36779;52.168;20.878;2024-01-15T06:02:27;97908.19;;;0.43;78.19
50682;BME280;36779;52.168;20.878;2024-01-15T06:05:07;97905.48;;;0.44;78.30
50682;BME280;36779;52.168;20.878;2024-01-15T06:07:40;97904.99;;;0.45;78.19
50682;BME280;36779;52.168;20.878;2024-01-15T06:10:14;97894.30;;;0.45;78.28
50682;BME280;36779;52.168;20.878;2024-01-15T06:12:47;97893.33;;;0.46;78.22
50682;BME280;36779;52.168;20.878;2024-01-15T06:15:24;97889.46;;;0.46;78.27
50682;BME280;36779;52.168;20.878;2024-01-15T06:17:57;97887.30;;;0.44;78.11
50682;BME280;36779;52.168;20.878;2024-01-15T06:20:32;97884.02;;;0.42;78.15
50682;BME280;36779;52.168;20.878;2024-01-15T06:23:07;97882.77;;;0.39;78.29
50682;BME280;36779;52.168;20.878;2024-01-15T06:25:43;97879.11;;;0.35;78.23
50682;BME280;36779;52.168;20.878;2024-01-15T06:28:19;97876.08;;;0.32;78.18
50682;BME280;36779;52.168;20.878;2024-01-15T06:30:54;97872.59;;;0.31;78.18
50682;BME280;36779;52.168;20.878;2024-01-15T06:33:28;97866.21;;;0.30;78.09
50682;BME280;36779;52.168;20.878;2024-01-15T06:36:01;97863.02;;;0.31;78.18
50682;BME280;36779;52.168;20.878;2024-01-15T06:38:35;97854.04;;;0.31;78.16
50682;BME280;36779;52.168;20.878;2024-01-15T06:41:11;97856.82;;;0.33;78.27
50682;BME280;36779;52.168;20.878;2024-01-15T06:43:47;97857.68;;;0.35;78.25
50682;BME280;36779;52.168;20.878;2024-01-15T06:46:24;97860.96;;;0.37;78.19
50682;BME280;36779;52.168;20.878;2024-01-15T06:48:57;97859.10;;;0.39;78.29
50682;BME280;36779;52.168;20.878;2024-01-15T06:51:30;97855.27;;;0.42;78.31
50682;BME280;36779;52.168;20.878;2024-01-15T06:54:03;97857.32;;;0.45;78.24
50682;BME280;36779;52.168;20.878;2024-01-15T06:56:36;97853.91;;;0.46;78.31
50682;BME280;36779;52.168;20.878;2024-01-15T06:59:10;97858.52;;;0.45;78.27
50682;BME280;36779;52.168;20.878;2024-01-15T07:01:50;97859.73;;;0.44;78.33
50682;BME280;36779;52.168;20.878;2024-01-15T07:04:23;97856.95;;;0.42;78.21
50682;BME280;36779;52.168;20.878;2024-01-15T07:07:01;97860.31;;;0.39;78.25
50682;BME280;36779;52.168;20.878;2024-01-15T07:09:35;97852.71;;;0.37;78.22
50682;BME280;36779;52.168;20.878;2024-01-15T07:12:08;97858.44;;;0.36;78.10
50682;BME280;36779;52.168;20.878;2024-01-15T07:14:41;97855.52;;;0.35;78.21
50682;BME280;36779;52.168;20.878;2024-01-15T07:17:19;97861.29;;;0.35;78.14
50682;BME280;36779;52.168;20.878;2024-01-15T07:19:52;97858.66;;;0.35;78.05
50682;BME280;36779;52.168;20.878;2024-01-15T07:22:25;97859.27;;;0.35;78.05
50682;BME280;36779;52.168;20.878;2024-01-15T07:24:57;97863.69;;;0.34;78.11
50682;BME280;36779;52.168;20.878;2024-01-15T07:27:30;97866.70;;;0.34;78.05
50682;BME280;36779;52.168;20.878;2024-01-15T07:30:04;97868.13;;;0.33;78.09
50682;BME280;36779;52.168;20.878;2024-01-15T07:32:38;97869.64;;;0.32;78.05
50682;BME280;36779;52.168;20.878;2024-01-15T07:35:13;97872.90;;;0.33;78.13
50682;BME280;36779;52.168;20.878;2024-01-15T07:37:49;97870.67;;;0.32;78.06
50682;BME280;36779;52.168;20.878;2024-01-15T07:40:21;97869.37;;;0.32;78.01
50682;BME280;36779;52.168;20.878;2024-01-15T07:42:55;97880.73;;;0.31;78.03
50682;BME280;36779;52.168;20.878;2024-01-15T07:45:29;97883.02;;;0.31;78.07
50682;BME280;36779;52.168;20.878;2024-01-15T07:48:03;97880.50;;;0.32;78.12
50682;BME280;36779;52.168;20.878;2024-01-15T07:50:36;97879.14;;;0.33;78.08
50682;BME280;36779;52.168;20.878;2024-01-15T07:53:08;97878.29;;;0.35;78.09
50682;BME280;36779;52.168;20.878;2024-01-15T07:55:40;97882.19;;;0.36;78.10
50682;BME280;36779;52.168;20.878;2024-01-15T07:58:16;97884.14;;;0.37;78.19
50682;BME280;36779;52.168;20.878;2024-01-15T08:00:51;97884.92;;;0.40;78.16
50682;BME280;36779;52.168;20.878;2024-01-15T08:03:25;97881.85;;;0.41;78.07
50682;BME280;36779;52.168;20.878;2024-01-15T08:05:58;97889.91;;;0.40;78.05
50682;BME280;36779;52.168;20.878;2024-01-15T08:08:30;97888.78;;;0.40;78.17
50682;BME280;36779;52.168;20.878;2024-01-15T08:11:05;97894.28;;;0.39;78.06
50682;BME280;36779;52.168;20.878;2024-01-15T08:13:43;97896.98;;;0.38;78.06
50682;BME280;36779;52.168;20.878;2024-01-15T08:16:17;97887.35;;;0.38;78.19
50682;BME280;36779;52.168;20.878;2024-01-15T08:18:52;97888.66;;;0.41;78.18
50682;BME280;36779;52.168;20.878;2024-01-15T08:21:25;97886.35;;;0.43;78.24
50682;BME280;36779;52.168;20.878;2024-01-15T08:24:03;97877.21;;;0.47;78.28
50682;BME280;36779;52.168;20.878;2024-01-15T08:26:35;97879.90;;;0.53;78.36
50682;BME280;36779;52.168;20.878;2024-01-15T08:29:08;97881.50;;;0.59;78.41
50682;BME280;36779;52.168;20.878;2024-01-15T08:31:41;97880.38;;;0.63;78.47
50682;BME280;36779;52.168;20.878;2024-01-15T08:34:13;97885.42;;;0.67;78.26
50682;BME280;36779;52.168;20.878;2024-01-15T08:36:48;97882.39;;;0.67;78.26
50682;BME280;36779;52.168;20.878;2024-01-15T08:39:21;97884.52;;;0.67;78.14
50682;BME280;36779;52.168;20.878;2024-01-15T08:41:57;97887.92;;;0.65;78.10
50682;BME280;36779;52.168;20.878;2024-01-15T08:44:32;97887.31;;;0.61;78.02
50682;BME280;36779;52.168;20.878;2024-01-15T08:47:05;97888.10;;;0.57;78.05
50682;BME280;36779;52.168;20.878;2024-01-15T08:49:38;97898.08;;;0.55;78.09
50682;BME280;36779;52.168;20.878;2024-01-15T08:52:14;97903.83;;;0.51;78.07
50682;BME280;36779;52.168;20.878;2024-01-15T08:54:47;97902.29;;;0.49;78.01
50682;BME280;36779;52.168;20.878;2024-01-15T08:57:21;97898.75;;;0.52;78.15
50682;BME280;36779;52.168;20.878;2024-01-15T08:59:54;97901.31;;;0.52;78.14
50682;BME280;36779;52.168;20.878;2024-01-15T09:02:27;97899.88;;;0.54;78.14
50682;BME280;36779;52.168;20.878;2024-01-15T09:05:01;97897.47;;;0.59;78.25
50682;BME280;36779;52.168;20.878;2024-01-15T09:07:35;97896.77;;;0.67;78.34
50682;BME280;36779;52.168;20.878;2024-01-15T09:10:09;97896.09;;;0.74;78.39
50682;BME280;36779;52.168;20.878;2024-01-15T09:12:41;97897.20;;;0.83;78.44
50682;BME280;36779;52.168;20.878;2024-01-15T09:15:14;97896.39;;;0.94;78.51
50682;BME280;36779;52.168;20.878;2024-01-15T09:17:48;97893.45;;;1.04;78.40
50682;BME280;36779;52.168;20.878;2024-01-15T09:20:22;97892.48;;;1.14;78.59
50682;BME280;36779;52.168;20.878;2024-01-15T09:22:55;97887.73;;;1.23;78.60
50682;BME280;36779;52.168;20.878;2024-01-15T09:25:27;97885.21;;;1.30;78.54
50682;BME280;36779;52.168;20.878;2024-01-15T09:28:00;97883.38;;;1.34;78.38
50682;BME280;36779;52.168;20.878;2024-01-15T09:30:35;97884.31;;;1.33;78.15
50682;BME280;36779;52.168;20.878;2024-01-15T09:33:08;97881.45;;;1.32;78.30
50682;BME280;36779;52.168;20.878;2024-01-15T09:35:40;97877.43;;;1.36;78.35
50682;BME280;36779;52.168;20.878;2024-01-15T09:38:16;97876.84;;;1.38;78.31
50682;BME280;36779;52.168;20.878;2024-01-15T09:40:49;97877.23;;;1.39;78.25
50682;BME280;36779;52.168;20.878;2024-01-15T09:43:24;97875.95;;;1.41;78.27
50682;BME280;36779;52.168;20.878;2024-01-15T09:45:58;97873.30;;;1.40;78.22
50682;BME280;36779;52.168;20.878;2024-01-15T09:48:31;97874.09;;;1.39;78.17
50682;BME280;36779;52.168;20.878;2024-01-15T09:51:08;97876.41;;;1.42;78.32
50682;BME280;36779;52.168;20.878;2024-01-15T09:53:43;97874.36;;;1.43;78.19
50682;BME280;36779;52.168;20.878;2024-01-15T09:56:18;97875.27;;;1.41;78.08
50682;BME280;36779;52.168;20.878;2024-01-15T09:58:51;97871.33;;;1.40;78.11
50682;BME280;36779;52.168;20.878;2024-01-15T10:01:25;97869.55;;;1.41;77.92
50682;BME280;36779;52.168;20.878;2024-01-15T10:04:01;97868.60;;;1.41;78.04
50682;BME280;36779;52.168;20.878;2024-01-15T10:06:36;97869.02;;;1.42;78.06
50682;BME280;36779;52.168;20.878;2024-01-15T10:09:10;97867.61;;;1.43;78.09
50682;BME280;36779;52.168;20.878;2024-01-15T10:11:46;97865.94;;;1.42;78.07
50682;BME280;36779;52.168;20.878;2024-01-15T10:14:22;97866.84;;;1.43;78.06
50682;BME280;36779;52.168;20.878;2024-01-15T10:16:55;97863.87;;;1.43;78.04
50682;BME280;36779;52.168;20.878;2024-01-15T10:19:27;97875.13;;;1.39;77.96
50682;BME280;36779;52.168;20.878;2024-01-15T10:22:02;97873.23;;;1.34;77.92
50682;BME280;36779;52.168;20.878;2024-01-15T10:24:36;97864.08;;;1.31;77.93
50682;BME280;36779;52.168;20.878;2024-01-15T10:27:10;97869.56;;;1.31;77.86
50682;BME280;36779;52.168;20.878;2024-01-15T10:29:52;97869.56;;;1.31;77.90
50682;BME280;36779;52.168;20.878;2024-01-15T10:32:25;97872.90;;;1.29;77.78
50682;BME280;36779;52.168;20.878;2024-01-15T10:34:58;97872.21;;;1.29;77.85
50682;BME280;36779;52.168;20.878;2024-01-15T10:37:34;97870.13;;;1.32;77.89
50682;BME280;36779;52.168;20.878;2024-01-15T10:40:07;97876.49;;;1.43;78.26
50682;BME280;36779;52.168;20.878;2024-01-15T10:42:46;97869.49;;;1.67;78.50
50682;BME280;36779;52.168;20.878;2024-01-15T10:45:19;97866.66;;;1.98;78.57
50682;BME280;36779;52.168;20.878;2024-01-15T10:47:52;97857.09;;;2.19;78.45
50682;BME280;36779;52.168;20.878;2024-01-15T10:50:26;97855.98;;;2.48;78.70
50682;BME280;36779;52.168;20.878;2024-01-15T10:52:59;97863.09;;;2.84;78.49
50682;BME280;36779;52.168;20.878;2024-01-15T10:55:34;97867.94;;;2.93;77.96
50682;BME280;36779;52.168;20.878;2024-01-15T10:58:09;97869.59;;;2.87;77.67
50682;BME280;36779;52.168;20.878;2024-01-15T11:00:44;97867.30;;;2.74;77.27
50682;BME280;36779;52.168;20.878;2024-01-15T11:03:20;97869.73;;;2.59;77.28
50682;BME280;36779;52.168;20.878;2024-01-15T11:05:54;97862.02;;;2.47;77.20
50682;BME280;36779;52.168;20.878;2024-01-15T11:08:27;97872.02;;;2.38;77.36
50682;BME280;36779;52.168;20.878;2024-01-15T11:11:01;97871.20;;;2.32;77.48
50682;BME280;36779;52.168;20.878;2024-01-15T11:13:42;97871.52;;;2.25;77.38
50682;BME280;36779;52.168;20.878;2024-01-15T11:16:16;97864.46;;;2.15;77.33
50682;BME280;36779;52.168;20.878;2024-01-15T11:19:02;97857.59;;;2.08;77.47
50682;BME280;36779;52.168;20.878;2024-01-15T11:21:45;97854.53;;;2.06;77.40
50682;BME280;36779;52.168;20.878;2024-01-15T11:24:34;97857.16;;;2.01;77.43
50682;BME280;36779;52.168;20.878;2024-01-15T11:27:10;97856.44;;;2.03;77.51
50682;BME280;36779;52.168;20.878;2024-01-15T11:29:42;97855.89;;;2.05;77.51
50682;BME280;36779;52.168;20.878;2024-01-15T11:32:34;97854.33;;;2.01;77.52
50682;BME280;36779;52.168;20.878;2024-01-15T11:35:07;97846.17;;;1.93;77.33
50682;BME280;36779;52.168;20.878;2024-01-15T11:38:01;97847.14;;;1.84;77.33
50682;BME280;36779;52.168;20.878;2024-01-15T11:40:40;97845.61;;;1.73;77.22
50682;BME280;36779;52.168;20.878;2024-01-15T11:43:16;97852.07;;;1.60;77.16
50682;BME280;36779;52.168;20.878;2024-01-15T11:45:57;97850.38;;;1.50;77.22
50682;BME280;36779;52.168;20.878;2024-01-15T11:48:43;97847.47;;;1.41;77.03
50682;BME280;36779;52.168;20.878;2024-01-15T11:51:19;97842.63;;;1.32;76.99
50682;BME280;36779;52.168;20.878;2024-01-15T11:53:58;97836.02;;;1.27;77.09
50682;BME280;36779;52.168;20.878;2024-01-15T11:56:35;97835.21;;;1.31;77.40
50682;BME280;36779;52.168;20.878;2024-01-15T11:59:08;97833.95;;;1.39;77.44
50682;BME280;36779;52.168;20.878;2024-01-15T12:01:40;97834.90;;;1.40;77.27
50682;BME280;36779;52.168;20.878;2024-01-15T12:04:15;97836.28;;;1.39;77.12
50682;BME280;36779;52.168;20.878;2024-01-15T12:06:49;97837.66;;;1.33;77.08
50682;BME280;36779;52.168;20.878;2024-01-15T12:09:21;97837.80;;;1.28;77.22
50682;BME280;36779;52.168;20.878;2024-01-15T12:12:00;97835.61;;;1.23;77.25
50682;BME280;36779;52.168;20.878;2024-01-15T12:14:37;97835.46;;;1.17;77.12
50682;BME280;36779;52.168;20.878;2024-01-15T12:17:10;97832.76;;;1.13;77.16
50682;BME280;36779;52.168;20.878;2024-01-15T12:19:45;97829.15;;;1.09;77.24
50682;BME280;36779;52.168;20.878;2024-01-15T12:22:21;97827.34;;;1.10;77.31
50682;BME280;36779;52.168;20.878;2024-01-15T12:24:53;97827.61;;;1.11;77.22
50682;BME280;36779;52.168;20.878;2024-01-15T12:27:26;97829.02;;;1.08;77.07
50682;BME280;36779;52.168;20.878;2024-01-15T12:29:59;97831.11;;;1.01;77.01
50682;BME280;36779;52.168;20.878;2024-01-15T12:32:31;97825.97;;;0.95;76.97
50682;BME280;36779;52.168;20.878;2024-01-15T12:35:04;97826.02;;;0.90;77.00
50682;BME280;36779;52.168;20.878;2024-01-15T12:37:38;97822.06;;;0.87;76.96
50682;BME280;36779;52.168;20.878;2024-01-15T12:40:11;97818.29;;;0.84;76.96
50682;BME280;36779;52.168;20.878;2024-01-15T12:42:45;97824.25;;;0.77;76.86
50682;BME280;36779;52.168;20.878;2024-01-15T12:45:19;97812.90;;;0.72;76.92
50682;BME280;36779;52.168;20.878;2024-01-15T12:47:59;97812.30;;;0.69;77.01
50682;BME280;36779;52.168;20.878;2024-01-15T12:50:35;97818.91;;;0.71;77.06
50682;BME280;36779;52.168;20.878;2024-01-15T12:53:08;97825.88;;;0.75;77.21
50682;BME280;36779;52.168;20.878;2024-01-15T12:55:40;97825.73;;;0.75;77.24
50682;BME280;36779;52.168;20.878;2024-01-15T12:58:12;97824.54;;;0.71;77.10
50682;BME280;36779;52.168;20.878;2024-01-15T13:00:47;97829.18;;;0.66;77.15
50682;BME280;36779;52.168;20.878;2024-01-15T13:03:27;97835.89;;;0.61;77.11
50682;BME280;36779;52.168;20.878;2024-01-15T13:06:02;97847.52;;;0.55;77.07
50682;BME280;36779;52.168;20.878;2024-01-15T13:08:36;97848.30;;;0.46;77.05
50682;BME280;36779;52.168;20.878;2024-01-15T13:11:08;97849.54;;;0.39;76.97
50682;BME280;36779;52.168;20.878;2024-01-15T13:13:41;97847.91;;;0.34;76.97
50682;BME280;36779;52.168;20.878;2024-01-15T13:16:20;97855.27;;;0.33;76.99
50682;BME280;36779;52.168;20.878;2024-01-15T13:18:56;97856.09;;;0.33;77.22
50682;BME280;36779;52.168;20.878;2024-01-15T13:21:30;97848.60;;;0.33;77.22
50682;BME280;36779;52.168;20.878;2024-01-15T13:24:02;97847.91;;;0.31;77.10
50682;BME280;36779;52.168;20.878;2024-01-15T13:26:36;97849.09;;;0.30;77.06
50682;BME280;36779;52.168;20.878;2024-01-15T13:29:09;97847.39;;;0.31;77.18
50682;BME280;36779;52.168;20.878;2024-01-15T13:31:43;97847.88;;;0.33;77.21
50682;BME280;36779;52.168;20.878;2024-01-15T13:34:17;97845.04;;;0.34;77.25
50682;BME280;36779;52.168;20.878;2024-01-15T13:36:52;97839.17;;;0.36;77.25
50682;BME280;36779;52.168;20.878;2024-01-15T13:39:24;97842.23;;;0.39;77.28